Time;durP1;ratioP1;P1;durP2;ratioP2;P2;SDS_P1;SDS_P2;PMS_P1;PMS_P2;Temp;Humidity;BMP_temperature;BMP_pressure;BME280_temperature;BME280_humidity;BME280_pressure;Samples;Min_cycle;Max_cycle;Signal;HPM_P1;HPM_P2
2021/04/30 00:01:54;;;;;;;;;;;7.70;99.90;;;;;;5056180;28;20394;-66
2021/04/30 00:04:21;;;;;;;11.60;7.00;;;7.60;99.90;;;;;;5055211;28;20273;-66
2021/04/30 00:06:48;;;;;;;10.60;6.23;;;7.50;99.90;;;;;;5055232;28;20055;-66
2021/04/30 00:09:14;;;;;;;10.47;6.57;;;7.30;99.90;;;;;;5057452;28;20560;-66
2021/04/30 00:11:41;;;;;;;10.40;6.73;;;7.30;99.90;;;;;;5060364;28;20053;-66
2021/04/30 00:14:07;;;;;;;10.90;6.93;;;7.40;99.90;;;;;;5057762;28;20060;-67
2021/04/30 00:16:39;;;;;;;10.50;7.03;;;7.30;99.90;;;;;;5059442;28;20058;-66
2021/04/30 00:19:07;;;;;;;10.63;7.43;;;7.50;99.90;;;;;;5057477;28;20060;-66
2021/04/30 00:21:34;;;;;;;11.87;7.17;;;7.40;99.90;;;;;;5059809;28;20057;-66
2021/04/30 00:24:00;;;;;;;15.30;8.10;;;7.30;99.90;;;;;;5058539;28;20048;-66
2021/04/30 00:26:27;;;;;;;12.20;7.90;;;7.30;99.90;;;;;;5058903;28;20059;-66
2021/04/30 00:28:54;;;;;;;13.00;7.40;;;7.20;99.90;;;;;;5057121;28;20496;-66
2021/04/30 00:31:21;;;;;;;15.13;8.40;;;7.10;99.90;;;;;;5056639;28;20059;-66
2021/04/30 00:33:47;;;;;;;13.67;7.83;;;7.00;99.90;;;;;;5054757;28;20541;-66
2021/04/30 00:36:15;;;;;;;13.47;8.50;;;6.90;99.90;;;;;;5058319;28;20068;-66
2021/04/30 00:38:41;;;;;;;13.87;8.67;;;7.00;99.90;;;;;;5056726;28;20049;-66
2021/04/30 00:41:08;;;;;;;16.57;9.40;;;7.10;99.90;;;;;;5056957;28;20118;-66
2021/04/30 00:43:35;;;;;;;12.60;8.00;;;7.00;99.90;;;;;;5056744;28;20055;-66
2021/04/30 00:46:01;;;;;;;13.67;8.53;;;7.00;99.90;;;;;;5057000;28;20317;-65
2021/04/30 00:48:28;;;;;;;14.93;8.47;;;6.90;99.90;;;;;;5055770;28;20088;-66
2021/04/30 00:50:54;;;;;;;14.37;8.73;;;6.80;99.90;;;;;;5057684;28;20052;-66
2021/04/30 00:53:22;;;;;;;13.67;8.43;;;6.80;99.90;;;;;;5054829;28;20390;-66
2021/04/30 00:55:49;;;;;;;14.30;9.07;;;7.00;99.90;;;;;;5055945;28;20079;-66
2021/04/30 00:58:17;;;;;;;13.30;8.53;;;6.90;99.90;;;;;;5053867;28;20052;-66
2021/04/30 01:00:43;;;;;;;12.80;8.80;;;6.90;99.90;;;;;;5056147;28;20060;-66
2021/04/30 01:03:10;;;;;;;15.20;9.03;;;7.00;99.90;;;;;;5057036;28;20048;-66
2021/04/30 01:05:38;;;;;;;13.47;8.70;;;6.90;99.90;;;;;;5055857;28;20052;-66
2021/04/30 01:08:05;;;;;;;16.17;8.97;;;7.00;99.90;;;;;;5056742;28;20577;-66
2021/04/30 01:10:33;;;;;;;16.77;8.77;;;7.10;99.90;;;;;;5055891;28;20119;-66
2021/04/30 01:12:59;;;;;;;14.57;9.50;;;7.20;99.90;;;;;;5054610;28;20052;-65
2021/04/30 01:15:26;;;;;;;15.10;9.07;;;7.10;99.90;;;;;;5055026;28;20071;-65
2021/04/30 01:17:53;;;;;;;14.93;8.83;;;7.20;99.90;;;;;;5053889;28;20345;-65
2021/04/30 01:20:21;;;;;;;13.77;9.17;;;7.10;99.90;;;;;;5055920;28;20468;-66
2021/04/30 01:22:51;;;;;;;14.57;8.70;;;7.00;99.90;;;;;;5054113;28;20079;-66
2021/04/30 01:25:19;;;;;;;15.67;9.63;;;6.90;99.90;;;;;;5056315;28;20051;-65
2021/04/30 01:27:46;;;;;;;18.20;9.53;;;6.80;99.90;;;;;;5055816;28;20101;-65
2021/04/30 01:30:16;;;;;;;12.63;8.47;;;6.70;99.90;;;;;;5054373;28;20063;-65
2021/04/30 01:32:43;;;;;;;13.77;8.87;;;6.70;99.90;;;;;;5050839;28;20048;-66
2021/04/30 01:35:11;;;;;;;14.60;9.70;;;6.70;99.90;;;;;;5050232;28;20634;-65
2021/04/30 01:37:38;;;;;;;13.80;8.90;;;6.70;99.90;;;;;;5055401;28;20062;-65
2021/04/30 01:40:13;;;;;;;15.17;8.90;;;6.60;99.90;;;;;;5055622;28;20056;-65
2021/04/30 01:42:55;;;;;;;15.97;9.33;;;6.70;99.90;;;;;;5055363;28;20056;-65
2021/04/30 01:45:22;;;;;;;21.30;10.77;;;6.70;99.90;;;;;;5052582;28;20465;-65
2021/04/30 01:47:48;;;;;;;15.63;9.07;;;6.70;99.90;;;;;;5052469;28;20095;-65
2021/04/30 01:50:15;;;;;;;15.87;9.13;;;6.70;99.90;;;;;;5055003;28;20080;-65
2021/04/30 01:52:41;;;;;;;14.63;9.00;;;6.70;99.90;;;;;;5056388;28;20653;-65
2021/04/30 01:55:09;;;;;;;14.50;8.90;;;6.50;99.90;;;;;;5056570;28;20113;-65
2021/04/30 01:57:36;;;;;;;14.53;9.53;;;6.50;99.90;;;;;;5057803;28;20049;-66
2021/04/30 02:00:06;;;;;;;16.23;9.47;;;6.50;99.90;;;;;;5054353;28;20053;-65
2021/04/30 02:02:44;;;;;;;16.13;9.67;;;6.50;99.90;;;;;;5056414;28;20113;-66
2021/04/30 02:05:12;;;;;;;15.53;9.93;;;6.40;99.90;;;;;;5052992;28;20059;-66
2021/04/30 02:07:38;;;;;;;15.37;9.97;;;6.40;99.90;;;;;;5053986;28;20051;-66
2021/04/30 02:10:06;;;;;;;;;;;6.30;99.90;;;;;;5056071;28;20079;-65
2021/04/30 02:12:33;;;;;;;14.23;9.03;;;6.40;99.90;;;;;;5056400;28;20111;-65
2021/04/30 02:15:00;;;;;;;14.53;9.57;;;6.40;99.90;;;;;;5054355;28;20528;-66
2021/04/30 02:17:30;;;;;;;16.50;10.53;;;6.30;99.90;;;;;;5056674;28;20409;-66
2021/04/30 02:19:57;;;;;;;17.47;10.30;;;6.20;99.90;;;;;;5055125;28;20052;-66
2021/04/30 02:22:23;;;;;;;16.23;9.90;;;6.10;99.90;;;;;;5055111;28;20056;-66
2021/04/30 02:24:50;;;;;;;17.53;10.67;;;6.00;99.90;;;;;;5055433;28;20075;-66
2021/04/30 02:27:16;;;;;;;18.10;10.57;;;5.90;99.90;;;;;;5054536;28;20515;-65
2021/04/30 02:29:43;;;;;;;;;;;6.00;99.90;;;;;;5055665;28;20048;-66
2021/04/30 02:32:10;;;;;;;19.53;10.40;;;5.90;99.90;;;;;;5055501;28;19955;-65
2021/04/30 02:34:37;;;;;;;16.23;10.67;;;5.90;99.90;;;;;;5053622;28;20097;-66
2021/04/30 02:37:03;;;;;;;15.27;9.60;;;5.80;99.90;;;;;;5051145;28;20087;-66
2021/04/30 02:39:30;;;;;;;16.93;10.10;;;5.80;99.90;;;;;;5051761;28;20131;-66
2021/04/30 02:41:57;;;;;;;17.40;10.50;;;5.70;99.90;;;;;;5052814;28;20481;-66
2021/04/30 02:44:23;;;;;;;14.67;9.63;;;5.70;99.90;;;;;;5055491;28;20088;-65
2021/04/30 02:46:49;;;;;;;;;;;5.70;99.90;;;;;;5056310;28;20052;-65
2021/04/30 02:49:24;;;;;;;13.80;8.90;;;5.60;99.90;;;;;;5051540;28;20013;-65
2021/04/30 02:51:51;;;;;;;15.47;9.17;;;5.50;99.90;;;;;;5048548;28;20492;-65
2021/04/30 02:54:17;;;;;;;20.07;9.10;;;5.60;99.90;;;;;;5053692;28;20129;-65
2021/04/30 02:56:44;;;;;;;15.60;8.63;;;5.60;99.90;;;;;;5054063;28;20432;-65
2021/04/30 02:59:10;;;;;;;13.30;8.87;;;5.50;99.90;;;;;;5053927;28;20128;-65
2021/04/30 03:01:37;;;;;;;16.67;10.27;;;5.50;99.90;;;;;;5053553;28;20052;-65
2021/04/30 03:04:04;;;;;;;14.97;9.57;;;5.50;99.90;;;;;;5052040;28;20062;-65
2021/04/30 03:06:31;;;;;;;18.47;11.80;;;5.40;99.90;;;;;;5054530;28;20508;-65
2021/04/30 03:08:59;;;;;;;15.67;10.00;;;5.50;99.90;;;;;;5054312;28;20048;-65
2021/04/30 03:11:26;;;;;;;17.33;9.97;;;5.60;99.90;;;;;;5055175;28;20063;-66
2021/04/30 03:13:53;;;;;;;18.60;10.87;;;5.60;99.90;;;;;;5052397;28;20083;-65
2021/04/30 03:16:19;;;;;;;16.03;10.70;;;5.50;99.90;;;;;;5051505;28;20090;-65
2021/04/30 03:18:46;;;;;;;17.47;10.30;;;5.40;99.90;;;;;;5052440;28;20923;-66
2021/04/30 03:21:12;;;;;;;17.10;10.63;;;5.30;99.90;;;;;;5055692;28;20088;-65
2021/04/30 03:23:40;;;;;;;21.40;11.00;;;5.30;99.90;;;;;;5056805;28;20170;-65
2021/04/30 03:26:06;;;;;;;15.53;9.83;;;5.30;99.90;;;;;;5058091;28;20048;-65
2021/04/30 03:28:32;;;;;;;;;;;5.30;99.90;;;;;;5053746;28;20057;-65
2021/04/30 03:30:59;;;;;;;17.93;9.67;;;5.30;99.90;;;;;;5052575;28;19924;-65
2021/04/30 03:33:25;;;;;;;;;;;5.30;99.90;;;;;;5053222;28;20463;-65
2021/04/30 03:35:51;;;;;;;15.57;10.00;;;5.30;99.90;;;;;;5054838;28;19932;-65
2021/04/30 03:38:18;;;;;;;18.87;10.10;;;5.30;99.90;;;;;;5051166;28;20052;-65
2021/04/30 03:40:46;;;;;;;17.63;11.07;;;5.30;99.90;;;;;;5053954;28;20052;-65
2021/04/30 03:43:12;;;;;;;20.10;11.57;;;5.30;99.90;;;;;;5058513;28;20087;-65
2021/04/30 03:45:39;;;;;;;17.27;11.30;;;5.30;99.90;;;;;;5056415;28;20048;-65
2021/04/30 03:48:06;;;;;;;17.13;10.50;;;5.20;99.90;;;;;;5055787;28;20052;-65
2021/04/30 03:50:32;;;;;;;16.90;11.23;;;5.10;99.90;;;;;;5056787;28;20063;-65
2021/04/30 03:52:59;;;;;;;18.63;11.13;;;5.10;99.90;;;;;;5053646;28;20076;-66
2021/04/30 03:55:25;;;;;;;17.70;10.73;;;5.10;99.90;;;;;;5057779;28;20079;-65
2021/04/30 03:57:53;;;;;;;18.03;10.87;;;5.10;99.90;;;;;;5056012;28;20083;-66
2021/04/30 04:00:20;;;;;;;18.97;11.93;;;5.00;99.90;;;;;;5055504;28;20044;-65
2021/04/30 04:02:47;;;;;;;20.07;10.97;;;5.00;99.90;;;;;;5056291;28;20055;-65
2021/04/30 04:05:14;;;;;;;20.30;12.23;;;5.10;99.90;;;;;;5053645;28;20056;-65
2021/04/30 04:07:40;;;;;;;19.80;11.93;;;5.10;99.90;;;;;;5055282;28;20091;-65
2021/04/30 04:10:07;;;;;;;17.10;11.10;;;5.00;99.90;;;;;;5057942;28;21287;-66
2021/04/30 04:12:34;;;;;;;19.73;11.57;;;4.80;99.90;;;;;;5055198;28;20052;-66
2021/04/30 04:15:01;;;;;;;20.97;11.67;;;4.80;99.90;;;;;;5057848;28;20074;-65
2021/04/30 04:17:28;;;;;;;20.73;12.33;;;4.80;99.90;;;;;;5055724;28;20047;-66
2021/04/30 04:19:55;;;;;;;19.60;12.43;;;4.80;99.90;;;;;;5057386;28;20044;-65
2021/04/30 04:22:21;;;;;;;22.00;11.70;;;4.80;99.90;;;;;;5057601;28;20428;-65
2021/04/30 04:24:48;;;;;;;21.67;12.07;;;4.80;99.90;;;;;;5057207;28;20638;-66
2021/04/30 04:27:14;;;;;;;24.90;12.77;;;4.80;99.90;;;;;;5053710;28;20053;-65
2021/04/30 04:29:41;;;;;;;24.10;12.83;;;5.00;99.90;;;;;;5057127;28;20052;-65
2021/04/30 04:32:09;;;;;;;19.90;12.23;;;5.10;99.90;;;;;;5059484;28;20194;-65
2021/04/30 04:34:36;;;;;;;21.27;11.63;;;5.20;99.90;;;;;;5057874;28;20523;-65
2021/04/30 04:37:02;;;;;;;21.00;12.23;;;5.10;99.90;;;;;;5055335;28;20056;-65
2021/04/30 04:39:31;;;;;;;19.60;12.03;;;5.00;99.90;;;;;;5055937;28;20056;-65
2021/04/30 04:41:57;;;;;;;22.97;11.83;;;5.00;99.90;;;;;;5057137;28;20055;-66
2021/04/30 04:44:24;;;;;;;20.53;13.00;;;5.00;99.90;;;;;;5056459;28;20052;-65
2021/04/30 04:46:50;;;;;;;21.23;12.77;;;5.00;99.90;;;;;;5055205;28;20052;-65
2021/04/30 04:49:18;;;;;;;21.27;12.10;;;5.00;99.90;;;;;;5054524;28;20052;-65
2021/04/30 04:51:44;;;;;;;20.33;12.70;;;5.00;99.90;;;;;;5056719;28;20053;-65
2021/04/30 04:54:11;;;;;;;20.60;12.80;;;5.00;99.90;;;;;;5055516;28;20820;-65
2021/04/30 04:56:37;;;;;;;19.10;11.13;;;5.10;99.90;;;;;;5058735;28;20101;-66
2021/04/30 04:59:04;;;;;;;23.50;13.43;;;5.10;99.90;;;;;;5056803;28;20055;-65
2021/04/30 05:01:30;;;;;;;16.67;10.87;;;5.20;99.90;;;;;;5059306;28;20142;-65
2021/04/30 05:03:57;;;;;;;;;;;5.20;99.90;;;;;;5059785;28;20084;-68
2021/04/30 05:06:25;;;;;;;19.92;12.32;;;5.30;99.90;;;;;;5058393;28;20058;-66
2021/04/30 05:08:51;;;;;;;19.50;11.50;;;5.40;99.90;;;;;;5052698;28;20071;-66
2021/04/30 05:11:17;;;;;;;;;;;5.50;99.90;;;;;;5053353;28;20049;-66
2021/04/30 05:13:44;;;;;;;18.67;10.77;;;5.60;99.90;;;;;;5054336;28;20044;-65
2021/04/30 05:16:12;;;;;;;17.10;10.83;;;5.70;99.90;;;;;;5055604;28;20405;-66
2021/04/30 05:18:39;;;;;;;17.60;11.67;;;5.80;99.90;;;;;;5053367;28;20057;-66
2021/04/30 05:21:05;;;;;;;;;;;5.80;99.90;;;;;;5043171;28;20047;-66
2021/04/30 05:23:36;;;;;;;20.73;12.13;;;5.90;99.90;;;;;;5049094;28;19947;-66
2021/04/30 05:26:03;;;;;;;20.87;12.07;;;6.10;99.90;;;;;;5044540;28;20052;-65
2021/04/30 05:28:31;;;;;;;20.43;11.93;;;6.10;99.90;;;;;;5047656;28;20460;-65
2021/04/30 05:30:57;;;;;;;19.57;12.43;;;6.20;99.90;;;;;;5050915;28;20052;-64
2021/04/30 05:33:24;;;;;;;18.87;12.10;;;6.30;99.90;;;;;;5046162;28;20491;-64
2021/04/30 05:35:51;;;;;;;21.67;12.67;;;6.40;99.90;;;;;;5043623;28;20055;-65
2021/04/30 05:38:18;;;;;;;16.90;11.07;;;6.60;99.90;;;;;;5037500;28;20055;-65
2021/04/30 05:40:46;;;;;;;19.57;12.43;;;6.60;99.90;;;;;;5051085;28;20524;-65
2021/04/30 05:43:12;;;;;;;20.53;13.03;;;6.70;99.90;;;;;;5049244;28;20055;-65
2021/04/30 05:45:40;;;;;;;21.30;13.17;;;6.80;99.90;;;;;;5050603;28;20489;-64
2021/04/30 05:48:07;;;;;;;20.60;12.83;;;6.80;99.90;;;;;;5039980;28;20056;-64
2021/04/30 05:50:34;;;;;;;21.13;12.97;;;6.90;99.90;;;;;;5043309;28;20119;-65
2021/04/30 05:53:01;;;;;;;19.87;11.90;;;7.00;99.90;;;;;;5046780;28;20123;-66
2021/04/30 05:55:27;;;;;;;19.87;12.50;;;7.10;99.90;;;;;;5043838;28;20060;-65
2021/04/30 05:57:55;;;;;;;23.80;13.60;;;7.20;99.90;;;;;;5047279;28;20060;-65
2021/04/30 06:00:22;;;;;;;25.27;14.27;;;7.30;99.90;;;;;;5048501;28;20142;-66
2021/04/30 06:02:48;;;;;;;21.67;13.60;;;7.40;99.90;;;;;;5049500;28;20512;-66
2021/04/30 06:05:15;;;;;;;23.40;13.13;;;7.40;99.90;;;;;;5049624;28;20084;-67
2021/04/30 06:07:41;;;;;;;24.97;13.60;;;7.50;99.90;;;;;;5053168;28;20109;-67
2021/04/30 06:10:09;;;;;;;22.17;13.50;;;7.50;99.90;;;;;;5055714;28;20090;-65
2021/04/30 06:12:36;;;;;;;19.87;12.67;;;7.70;99.90;;;;;;5053174;28;20060;-64
2021/04/30 06:15:04;;;;;;;21.98;13.35;;;7.90;99.90;;;;;;5048596;28;20048;-64
2021/04/30 06:17:31;;;;;;;20.92;12.82;;;8.10;99.90;;;;;;5049524;28;20427;-64
2021/04/30 06:19:58;;;;;;;22.13;13.10;;;8.30;99.90;;;;;;5051216;28;20048;-65
2021/04/30 06:22:24;;;;;;;20.85;13.63;;;8.20;99.90;;;;;;5048997;28;20117;-64
2021/04/30 06:24:51;;;;;;;23.90;13.77;;;8.20;99.90;;;;;;5043464;28;20084;-65
2021/04/30 06:27:17;;;;;;;;;;;8.30;99.90;;;;;;5050205;28;20506;-64
2021/04/30 06:29:44;;;;;;;21.47;13.57;;;8.10;99.90;;;;;;5046405;28;19936;-65
2021/04/30 06:32:11;;;;;;;;;;;8.10;99.90;;;;;;5051751;28;20439;-64
2021/04/30 06:34:38;;;;;;;22.70;12.88;;;8.20;99.90;;;;;;5048380;28;20012;-65
2021/04/30 06:37:05;;;;;;;22.67;13.90;;;8.30;99.90;;;;;;5048095;28;20063;-65
2021/04/30 06:39:32;;;;;;;22.00;13.30;;;8.10;99.90;;;;;;5046312;28;20135;-65
2021/04/30 06:42:02;;;;;;;23.07;13.57;;;7.90;99.90;;;;;;5046209;28;20044;-64
2021/04/30 06:44:29;;;;;;;21.33;13.88;;;8.00;99.90;;;;;;5044201;28;20091;-64
2021/04/30 06:46:55;;;;;;;23.73;15.20;;;8.10;99.90;;;;;;5038140;28;20052;-65
2021/04/30 06:49:23;;;;;;;21.83;14.20;;;8.20;99.90;;;;;;5044138;28;20051;-65
2021/04/30 06:51:50;;;;;;;23.07;14.70;;;8.20;99.90;;;;;;5046128;28;20052;-65
2021/04/30 06:54:16;;;;;;;23.17;14.15;;;8.40;99.90;;;;;;5046370;28;20052;-65
2021/04/30 06:56:43;;;;;;;22.58;14.15;;;8.50;99.90;;;;;;5048062;28;20066;-64
2021/04/30 06:59:10;;;;;;;25.97;15.00;;;8.50;99.90;;;;;;5046900;28;20056;-72
2021/04/30 07:01:36;;;;;;;26.13;13.52;;;8.60;99.90;;;;;;5057673;28;20055;-69
2021/04/30 07:04:04;;;;;;;21.70;13.20;;;8.90;99.90;;;;;;5052184;28;20241;-69
2021/04/30 07:06:31;;;;;;;22.20;13.80;;;8.90;99.90;;;;;;5055633;28;20053;-68
2021/04/30 07:08:58;;;;;;;23.45;13.88;;;8.90;99.90;;;;;;5055123;28;20471;-67
2021/04/30 07:11:24;;;;;;;;;;;8.80;99.90;;;;;;5054236;28;20063;-68
2021/04/30 07:13:51;;;;;;;23.88;13.18;;;9.00;99.90;;;;;;5053122;28;20011;-65
2021/04/30 07:16:17;;;;;;;;;;;9.10;99.90;;;;;;5058786;28;20087;-64
2021/04/30 07:18:43;;;;;;;21.35;12.18;;;9.40;99.90;;;;;;5058362;28;19927;-65
2021/04/30 07:21:10;;;;;;;22.45;12.52;;;9.30;99.90;;;;;;5051928;28;20152;-64
2021/04/30 07:23:38;;;;;;;;;;;9.30;99.90;;;;;;5052608;28;20057;-66
2021/04/30 07:26:05;;;;;;;18.40;11.80;;;9.40;99.90;;;;;;5048443;28;20014;-66
2021/04/30 07:28:31;;;;;;;23.23;12.68;;;9.60;99.90;;;;;;5043684;28;20121;-66
2021/04/30 07:30:58;;;;;;;20.83;11.95;;;9.70;99.90;;;;;;5039984;28;20130;-66
2021/04/30 07:33:25;;;;;;;20.77;12.00;;;9.80;99.90;;;;;;5043098;28;20069;-67
2021/04/30 07:35:51;;;;;;;17.40;11.65;;;9.90;99.90;;;;;;5046445;28;20052;-67
2021/04/30 07:38:17;;;;;;;;;;;10.10;99.90;;;;;;5051614;28;20151;-67
2021/04/30 07:40:45;;;;;;;21.40;12.50;;;10.30;99.90;;;;;;5046037;28;20882;-67
2021/04/30 07:43:12;;;;;;;21.52;12.07;;;10.50;99.90;;;;;;5048700;28;20056;-67
2021/04/30 07:45:40;;;;;;;18.42;12.25;;;10.40;99.90;;;;;;5044757;28;20525;-66
2021/04/30 07:48:08;;;;;;;19.23;11.82;;;10.50;99.90;;;;;;5046469;28;20075;-66
2021/04/30 07:50:35;;;;;;;18.30;11.60;;;10.60;99.90;;;;;;5047153;28;20132;-66
2021/04/30 07:53:02;;;;;;;18.67;11.77;;;10.70;99.90;;;;;;5049575;28;20109;-67
2021/04/30 07:55:28;;;;;;;18.95;12.38;;;10.80;99.90;;;;;;5054180;28;20055;-67
2021/04/30 07:57:56;;;;;;;18.15;11.02;;;10.80;99.90;;;;;;5050292;28;20060;-66
2021/04/30 08:00:22;;;;;;;21.02;12.90;;;11.00;99.90;;;;;;5052710;28;20542;-66
2021/04/30 08:02:49;;;;;;;19.52;11.57;;;11.20;99.90;;;;;;5044353;28;20131;-67
2021/04/30 08:05:16;;;;;;;19.38;12.38;;;11.30;99.90;;;;;;5048261;28;20154;-65
2021/04/30 08:07:42;;;;;;;20.17;12.43;;;11.20;99.90;;;;;;5047399;28;20057;-66
2021/04/30 08:10:11;;;;;;;19.27;11.95;;;11.30;99.90;;;;;;5045015;28;20547;-66
2021/04/30 08:12:38;;;;;;;18.63;11.90;;;11.30;99.90;;;;;;5047674;28;20048;-66
2021/04/30 08:15:07;;;;;;;19.38;12.32;;;11.50;99.90;;;;;;5045345;28;20804;-66
2021/04/30 08:17:34;;;;;;;20.10;12.38;;;11.70;99.90;;;;;;5046677;28;20095;-66
2021/04/30 08:20:03;;;;;;;19.58;12.18;;;11.70;99.90;;;;;;5048106;28;20168;-66
2021/04/30 08:22:30;;;;;;;23.83;11.77;;;11.90;99.90;;;;;;5046654;28;20053;-66
2021/04/30 08:24:57;;;;;;;21.20;12.25;;;12.20;99.90;;;;;;5045596;28;20052;-66
2021/04/30 08:27:24;;;;;;;17.90;12.25;;;12.70;99.90;;;;;;5043085;28;20056;-66
2021/04/30 08:29:51;;;;;;;21.55;11.63;;;13.10;99.90;;;;;;5048122;28;20562;-67
2021/04/30 08:32:19;;;;;;;18.05;12.35;;;13.50;99.90;;;;;;5049314;28;20044;-66
2021/04/30 08:34:45;;;;;;;17.58;11.43;;;13.70;99.90;;;;;;5043721;28;20139;-66
2021/04/30 08:37:12;;;;;;;18.13;11.25;;;14.50;99.90;;;;;;5049180;28;20052;-66
2021/04/30 08:39:40;;;;;;;17.85;11.63;;;14.90;99.90;;;;;;5045650;28;20052;-67
2021/04/30 08:42:06;;;;;;;18.88;12.27;;;15.50;99.90;;;;;;5044616;28;20099;-66
2021/04/30 08:44:36;;;;;;;17.98;11.25;;;16.00;99.90;;;;;;5048006;28;20079;-66
2021/04/30 08:47:02;;;;;;;18.83;12.35;;;16.80;99.30;;;;;;5048026;28;20151;-67
2021/04/30 08:49:30;;;;;;;19.27;11.77;;;17.50;97.20;;;;;;5047592;28;20623;-66
2021/04/30 08:51:56;;;;;;;15.20;11.00;;;18.50;95.20;;;;;;5044126;28;20055;-67
2021/04/30 08:54:23;;;;;;;16.77;11.00;;;19.30;92.80;;;;;;5044606;28;20056;-67
2021/04/30 08:56:52;;;;;;;15.82;11.20;;;20.00;89.40;;;;;;5045772;28;20110;-66
2021/04/30 08:59:22;;;;;;;14.32;10.20;;;20.50;83.80;;;;;;5046595;28;20150;-67
2021/04/30 09:01:48;;;;;;;14.45;10.45;;;21.10;79.70;;;;;;5047125;28;20055;-66
2021/04/30 09:04:15;;;;;;;14.10;10.70;;;21.70;75.60;;;;;;5045306;28;20072;-67
2021/04/30 09:06:44;;;;;;;14.40;10.38;;;20.90;75.00;;;;;;5043892;28;20425;-67
2021/04/30 09:09:12;;;;;;;15.23;10.32;;;21.60;71.00;;;;;;5042909;28;20053;-67
2021/04/30 09:11:41;;;;;;;12.98;10.52;;;21.70;70.20;;;;;;5045705;28;20056;-67
2021/04/30 09:14:29;;;;;;;16.25;11.32;;;21.80;68.90;;;;;;5048926;28;20143;-67
2021/04/30 09:17:02;;;;;;;13.25;10.70;;;21.00;66.30;;;;;;5044851;28;20071;-67
2021/04/30 09:19:33;;;;;;;18.02;10.82;;;20.70;68.70;;;;;;5047979;28;20052;-67
2021/04/30 09:22:02;;;;;;;19.48;10.80;;;20.00;68.60;;;;;;5045037;28;20056;-67
2021/04/30 09:24:29;;;;;;;13.77;9.75;;;20.40;69.30;;;;;;5047969;28;20056;-67
2021/04/30 09:26:57;;;;;;;14.45;9.40;;;20.70;69.40;;;;;;5046239;28;20083;-66
2021/04/30 09:29:24;;;;;;;14.85;9.80;;;20.60;68.50;;;;;;5046663;28;20067;-67
2021/04/30 09:31:51;;;;;;;13.65;9.52;;;20.90;67.80;;;;;;5047237;28;20051;-67
2021/04/30 09:34:26;;;;;;;14.90;10.48;;;20.80;68.10;;;;;;5046446;28;20044;-67
2021/04/30 09:37:06;;;;;;;18.15;9.60;;;20.60;67.00;;;;;;5044928;28;20052;-67
2021/04/30 09:39:49;;;;;;;12.70;9.95;;;19.90;66.60;;;;;;5044450;28;20052;-66
2021/04/30 09:42:17;;;;;;;14.07;9.98;;;19.50;66.90;;;;;;5045203;28;20048;-67
2021/04/30 09:44:45;;;;;;;15.70;10.00;;;19.50;67.80;;;;;;5047709;28;20057;-67
2021/04/30 09:47:16;;;;;;;15.10;9.45;;;19.20;67.50;;;;;;5045619;28;20044;-67
2021/04/30 09:49:44;;;;;;;14.93;10.05;;;18.60;68.90;;;;;;5048580;28;20052;-66
2021/04/30 09:52:12;;;;;;;14.00;10.00;;;18.60;68.20;;;;;;5045757;28;20053;-67
2021/04/30 09:54:40;;;;;;;13.93;10.60;;;18.80;68.00;;;;;;5048334;28;20169;-67
2021/04/30 09:57:10;;;;;;;14.55;9.95;;;18.60;69.50;;;;;;5046785;28;20090;-66
2021/04/30 09:59:37;;;;;;;15.18;9.95;;;18.40;69.70;;;;;;5044303;28;20052;-67
2021/04/30 10:02:18;;;;;;;13.57;9.13;;;18.50;70.40;;;;;;5045614;28;20155;-67
2021/04/30 10:04:46;;;;;;;13.25;8.85;;;18.10;70.00;;;;;;5044665;28;20048;-72
2021/04/30 10:07:15;;;;;;;14.05;8.95;;;18.20;69.20;;;;;;5053975;28;20553;-71
2021/04/30 10:09:43;;;;;;;12.57;8.82;;;18.40;67.90;;;;;;5054460;28;20087;-71
2021/04/30 10:12:28;;;;;;;13.57;8.75;;;18.40;69.10;;;;;;5052964;28;20139;-71
2021/04/30 10:14:55;;;;;;;12.40;9.50;;;18.60;68.40;;;;;;5054291;28;20101;-71
2021/04/30 10:17:22;;;;;;;14.00;8.45;;;18.50;67.00;;;;;;5052738;28;20476;-71
2021/04/30 10:19:50;;;;;;;9.90;6.60;;;17.80;69.20;;;;;;5053091;28;20079;-66
2021/04/30 10:22:20;;;;;;;11.45;7.97;;;17.80;68.80;;;;;;5043348;28;20049;-66
2021/04/30 10:24:52;;;;;;;12.57;7.72;;;17.50;67.90;;;;;;5044448;28;20052;-66
2021/04/30 10:27:25;;;;;;;16.02;7.22;;;17.20;69.50;;;;;;5042814;28;20052;-66
2021/04/30 10:30:01;;;;;;;16.65;7.22;;;17.10;70.00;;;;;;5053898;28;20139;-66
2021/04/30 10:32:31;;;;;;;14.63;6.95;;;16.80;70.00;;;;;;5056362;28;20500;-66
2021/04/30 10:35:01;;;;;;;12.60;7.95;;;16.90;68.50;;;;;;5054364;28;20079;-65
2021/04/30 10:37:31;;;;;;;11.05;7.30;;;16.40;70.30;;;;;;5048604;28;20530;-66
2021/04/30 10:39:59;;;;;;;14.40;6.72;;;16.40;69.60;;;;;;5052021;28;20735;-66
2021/04/30 10:42:39;;;;;;;9.27;5.97;;;16.40;70.20;;;;;;5060057;28;20048;-66
2021/04/30 10:45:10;;;;;;;9.98;6.15;;;16.50;71.40;;;;;;5054951;28;20036;-66
2021/04/30 10:47:36;;;;;;;11.57;5.78;;;16.30;71.40;;;;;;5052148;28;20093;-66
2021/04/30 10:50:15;;;;;;;12.35;6.55;;;16.50;72.00;;;;;;5053855;28;20063;-66
2021/04/30 10:52:43;;;;;;;11.18;6.70;;;16.30;71.40;;;;;;5055606;28;20101;-66
2021/04/30 10:55:11;;;;;;;9.20;6.32;;;16.20;70.60;;;;;;5054741;28;20048;-66
2021/04/30 10:57:56;;;;;;;9.18;6.38;;;15.80;72.40;;;;;;5056896;28;20098;-66
2021/04/30 11:00:37;;;;;;;13.02;7.80;;;15.50;72.90;;;;;;5059037;28;20519;-65
2021/04/30 11:03:18;;;;;;;11.95;7.07;;;14.90;75.00;;;;;;5058484;28;20363;-65
2021/04/30 11:05:56;;;;;;;13.68;8.60;;;14.50;75.10;;;;;;5054124;28;20110;-65
2021/04/30 11:08:52;;;;;;;13.77;7.78;;;14.00;76.20;;;;;;5056459;28;20056;-65
2021/04/30 11:11:32;;;;;;;13.60;7.82;;;13.90;78.10;;;;;;5034361;28;20143;-65
2021/04/30 11:14:27;;;;;;;12.68;8.10;;;14.10;78.60;;;;;;5056803;28;20891;-67
2021/04/30 11:16:55;;;;;;;13.13;7.63;;;14.30;79.90;;;;;;5058624;28;20133;-65
2021/04/30 11:19:22;;;;;;;10.95;6.90;;;14.60;78.20;;;;;;5056652;28;20059;-66
2021/04/30 11:21:51;;;;;;;10.98;7.22;;;14.70;77.20;;;;;;5055138;28;20047;-64
2021/04/30 11:24:40;;;;;;;10.68;7.95;;;14.90;76.80;;;;;;5055635;28;20058;-68
2021/04/30 11:27:36;;;;;;;13.32;7.90;;;14.70;76.80;;;;;;5055415;28;20052;-65
2021/04/30 11:30:26;;;;;;;10.32;6.72;;;14.30;78.50;;;;;;5056131;28;20103;-65
2021/04/30 11:32:59;;;;;;;13.02;7.82;;;14.30;78.50;;;;;;5056382;28;20052;-65
2021/04/30 11:35:28;;;;;;;13.27;7.65;;;14.50;78.40;;;;;;5055551;28;20056;-65
2021/04/30 11:37:55;;;;;;;11.95;7.70;;;14.40;79.10;;;;;;5052072;28;20053;-65
2021/04/30 11:40:24;;;;;;;16.13;7.95;;;14.30;79.60;;;;;;5048437;28;20067;-64
2021/04/30 11:43:06;;;;;;;26.88;13.73;;;14.20;80.10;;;;;;5055595;28;20182;-64
2021/04/30 11:45:36;;;;;;;13.65;7.25;;;14.30;81.80;;;;;;5055195;28;20142;-65
2021/04/30 11:48:04;;;;;;;11.32;6.45;;;14.40;81.60;;;;;;5050326;28;20055;-65
2021/04/30 11:50:30;;;;;;;14.63;7.65;;;14.10;81.00;;;;;;5046480;28;20076;-65
2021/04/30 11:52:57;;;;;;;14.23;7.53;;;14.00;82.10;;;;;;5037595;28;20510;-64
2021/04/30 11:55:24;;;;;;;;;;;14.10;83.50;;;;;;5043800;28;20082;-65
2021/04/30 11:57:53;;;;;;;11.15;7.30;;;14.20;85.20;;;;;;5052280;28;20434;-67
2021/04/30 12:00:21;;;;;;;11.25;7.28;;;14.30;83.70;;;;;;5051033;28;20048;-67
2021/04/30 12:02:59;;;;;;;12.88;7.97;;;14.30;84.20;;;;;;5058817;28;20040;-68
2021/04/30 12:05:26;;;;;;;12.98;8.65;;;14.30;84.70;;;;;;5055071;28;20509;-65
2021/04/30 12:07:53;;;;;;;15.65;8.27;;;14.50;86.10;;;;;;5053286;28;20082;-65
2021/04/30 12:10:23;;;;;;;14.07;8.80;;;14.50;86.60;;;;;;5057444;28;20044;-65
2021/04/30 12:12:50;;;;;;;14.63;8.45;;;14.50;86.60;;;;;;5057425;28;20048;-65
2021/04/30 12:15:30;;;;;;;15.57;8.35;;;14.40;87.00;;;;;;5057421;28;20052;-67
2021/04/30 12:17:57;;;;;;;15.48;8.82;;;14.50;88.30;;;;;;5053481;28;20075;-64
2021/04/30 12:20:25;;;;;;;11.55;8.13;;;14.30;88.10;;;;;;5050651;28;20097;-65
2021/04/30 12:22:54;;;;;;;12.50;7.72;;;14.30;87.20;;;;;;5051244;28;20452;-65
2021/04/30 12:25:27;;;;;;;16.55;8.55;;;14.10;87.00;;;;;;5043750;28;20049;-64
2021/04/30 12:28:11;;;;;;;14.90;8.25;;;14.10;88.80;;;;;;5047754;28;20044;-67
2021/04/30 12:30:37;;;;;;;13.23;7.65;;;14.10;88.60;;;;;;5049996;28;20049;-64
2021/04/30 12:33:04;;;;;;;12.93;7.95;;;14.00;90.00;;;;;;5050080;28;20110;-65
2021/04/30 12:35:31;;;;;;;13.10;7.20;;;14.10;89.30;;;;;;5052095;28;20059;-65
2021/04/30 12:37:58;;;;;;;11.35;7.20;;;13.90;90.00;;;;;;5051534;28;20083;-65
2021/04/30 12:40:28;;;;;;;11.75;7.10;;;13.90;90.30;;;;;;5056887;28;20070;-65
2021/04/30 12:42:57;;;;;;;15.25;7.38;;;13.80;90.30;;;;;;5050466;28;20118;-64
2021/04/30 12:45:24;;;;;;;9.50;4.57;;;13.80;89.80;;;;;;5048048;28;20087;-65
2021/04/30 12:47:53;;;;;;;10.82;5.30;;;13.30;88.30;;;;;;5055949;28;21315;-64
2021/04/30 12:50:23;;;;;;;10.23;5.82;;;12.90;92.00;;;;;;5059163;28;20137;-64